createdAt,value
2022-11-12T00:00:56.162Z,3.90
2022-11-12T00:04:00.361Z,4.60
2022-11-12T00:07:04.059Z,4.50
2022-11-12T00:10:08.018Z,4.05
2022-11-12T00:13:12.323Z,4.45
2022-11-12T00:16:16.903Z,4.47
2022-11-12T00:19:21.231Z,4.40
2022-11-12T00:22:24.917Z,4.03
2022-11-12T00:25:28.892Z,4.40
2022-11-12T00:28:37.724Z,4.40
2022-11-12T00:31:42.480Z,4.13
2022-11-12T00:34:46.466Z,4.88
2022-11-12T00:37:54.107Z,4.22
2022-11-12T00:41:01.340Z,4.10
2022-11-12T00:44:05.139Z,4.30
2022-11-12T00:47:09.142Z,3.80
2022-11-12T00:50:13.365Z,4.72
2022-11-12T00:53:17.877Z,4.38
2022-11-12T00:56:21.871Z,4.20
2022-11-12T00:59:25.595Z,4.15
2022-11-12T01:02:29.273Z,3.90
2022-11-12T01:05:33.797Z,4.15
2022-11-12T01:08:38.196Z,4.20
2022-11-12T01:11:42.486Z,4.25
2022-11-12T01:14:46.031Z,4.28
2022-11-12T01:17:50.114Z,4.07
2022-11-12T01:20:55.370Z,3.80
2022-11-12T01:24:00.546Z,3.78
2022-11-12T01:27:04.538Z,4.07
2022-11-12T01:30:08.553Z,3.90
2022-11-12T01:33:12.644Z,4.07
2022-11-12T01:36:17.328Z,3.72
2022-11-12T01:39:21.532Z,3.97
2022-11-12T01:42:29.792Z,3.42
2022-11-12T01:45:33.548Z,3.80
2022-11-12T01:48:52.072Z,4.10
2022-11-12T01:51:58.238Z,3.90
2022-11-12T01:55:07.478Z,3.50
2022-11-12T01:58:13.010Z,4.05
2022-11-12T02:01:17.288Z,3.78
2022-11-12T02:04:21.679Z,3.57
2022-11-12T02:07:25.863Z,3.95
2022-11-12T02:10:29.910Z,3.10
2022-11-12T02:13:52.471Z,3.33
2022-11-12T02:16:56.523Z,3.75
2022-11-12T02:20:00.822Z,3.50
2022-11-12T02:23:06.222Z,3.60
2022-11-12T02:26:10.111Z,3.45
2022-11-12T02:29:14.304Z,3.80
2022-11-12T02:32:18.031Z,3.78
2022-11-12T02:35:23.184Z,3.50
2022-11-12T02:38:27.576Z,3.60
2022-11-12T02:41:32.206Z,3.50
2022-11-12T02:44:36.140Z,3.63
2022-11-12T02:47:40.077Z,3.38
2022-11-12T02:50:43.870Z,3.20
2022-11-12T02:53:47.820Z,3.55
2022-11-12T02:56:51.668Z,3.03
2022-11-12T02:59:55.364Z,3.30
2022-11-12T03:02:59.552Z,3.78
2022-11-12T03:06:03.838Z,3.40
2022-11-12T03:09:08.203Z,3.20
2022-11-12T03:12:12.136Z,2.83
2022-11-12T03:15:17.651Z,3.67
2022-11-12T03:18:21.968Z,3.05
2022-11-12T03:21:25.948Z,3.40
2022-11-12T03:24:29.809Z,3.20
2022-11-12T03:27:33.474Z,3.30
2022-11-12T03:30:38.216Z,3.35
2022-11-12T03:33:42.418Z,3.30
2022-11-12T03:36:46.430Z,3.00
2022-11-12T03:39:50.226Z,3.17
2022-11-12T03:42:54.295Z,3.05
2022-11-12T03:45:59.108Z,3.00
2022-11-12T03:49:03.479Z,3.10
2022-11-12T03:52:07.931Z,2.90
2022-11-12T03:55:12.234Z,3.15
2022-11-12T03:58:16.085Z,3.08
2022-11-12T04:01:20.146Z,2.97
2022-11-12T04:04:44.143Z,3.05
2022-11-12T04:08:26.429Z,2.83
2022-11-12T04:11:30.650Z,3.45
2022-11-12T04:14:34.517Z,3.13
2022-11-12T04:17:57.333Z,2.80
2022-11-12T04:21:20.078Z,3.33
2022-11-12T04:24:42.669Z,3.00
2022-11-12T04:27:46.823Z,2.80
2022-11-12T04:30:50.719Z,3.42
2022-11-12T04:33:54.907Z,2.85
2022-11-12T04:36:59.556Z,2.65
2022-11-12T04:40:24.084Z,3.00
2022-11-12T04:43:47.163Z,2.83
2022-11-12T04:46:51.326Z,2.90
2022-11-12T04:49:55.248Z,2.70
2022-11-12T04:52:59.472Z,2.90
2022-11-12T04:56:03.352Z,2.90
2022-11-12T04:59:07.304Z,2.83
2022-11-12T05:02:11.248Z,2.60
2022-11-12T05:05:15.678Z,2.70
2022-11-12T05:08:19.694Z,2.35
2022-11-12T05:11:23.663Z,2.60
2022-11-12T05:14:27.455Z,2.70
2022-11-12T05:17:31.510Z,2.70
2022-11-12T05:20:35.681Z,2.60
2022-11-12T05:23:39.462Z,2.75
2022-11-12T05:26:43.297Z,2.27
2022-11-12T05:29:47.258Z,2.70
2022-11-12T05:32:51.234Z,2.60
2022-11-12T05:35:58.224Z,2.80
2022-11-12T05:39:02.113Z,2.60
2022-11-12T05:42:13.063Z,2.60
2022-11-12T05:45:17.400Z,2.47
2022-11-12T05:48:24.461Z,2.85
2022-11-12T05:51:28.726Z,2.80
2022-11-12T05:54:32.782Z,3.00
2022-11-12T05:57:36.838Z,2.47
2022-11-12T06:00:40.885Z,2.40
2022-11-12T06:03:44.995Z,2.80
2022-11-12T06:06:49.245Z,2.55
2022-11-12T06:09:53.208Z,2.65
2022-11-12T06:12:57.018Z,2.60
2022-11-12T06:16:00.798Z,2.80
2022-11-12T06:19:05.068Z,2.53
2022-11-12T06:22:08.853Z,2.30
2022-11-12T06:25:13.033Z,2.70
2022-11-12T06:28:16.924Z,2.57
2022-11-12T06:31:21.069Z,2.50
2022-11-12T06:34:24.732Z,2.78
2022-11-12T06:37:28.865Z,2.92
2022-11-12T06:40:32.844Z,2.33
2022-11-12T06:43:37.119Z,2.40
2022-11-12T06:46:40.824Z,2.55
2022-11-12T06:49:44.764Z,3.03
2022-11-12T06:52:48.758Z,2.50
2022-11-12T06:55:52.481Z,2.60
2022-11-12T06:58:56.687Z,2.70
2022-11-12T07:02:00.823Z,2.75
2022-11-12T07:05:04.907Z,2.65
2022-11-12T07:08:08.684Z,2.40
2022-11-12T07:11:13.108Z,2.65
2022-11-12T07:14:17.104Z,2.43
2022-11-12T07:17:20.950Z,2.78
2022-11-12T07:20:25.018Z,2.50
2022-11-12T07:23:30.323Z,2.65
2022-11-12T07:26:34.052Z,2.28
2022-11-12T07:29:47.416Z,2.33
2022-11-12T07:32:52.333Z,2.53
2022-11-12T07:35:57.143Z,3.35
2022-11-12T07:39:01.142Z,3.45
2022-11-12T07:42:05.030Z,3.55
2022-11-12T07:45:09.102Z,3.60
2022-11-12T07:48:13.196Z,3.33
2022-11-12T07:51:21.730Z,3.10
2022-11-12T07:54:25.522Z,2.60
2022-11-12T07:57:32.173Z,3.10
2022-11-12T08:00:36.303Z,2.80
2022-11-12T08:03:40.046Z,3.00
2022-11-12T08:06:44.125Z,3.22
2022-11-12T08:09:47.802Z,3.00
2022-11-12T08:12:51.639Z,2.63
2022-11-12T08:15:57.669Z,3.07
2022-11-12T08:19:01.706Z,3.10
2022-11-12T08:22:05.795Z,3.00
2022-11-12T08:25:09.408Z,2.55
2022-11-12T08:28:13.146Z,2.95
2022-11-12T08:31:18.551Z,2.63
2022-11-12T08:34:22.903Z,3.13
2022-11-12T08:37:26.814Z,2.53
2022-11-12T08:40:31.988Z,2.40
2022-11-12T08:43:36.003Z,2.95
2022-11-12T08:46:40.159Z,2.70
2022-11-12T08:49:48.080Z,2.50
2022-11-12T08:52:52.579Z,2.97
2022-11-12T08:55:57.388Z,2.70
2022-11-12T08:59:05.037Z,3.65
2022-11-12T09:02:14.279Z,3.90
2022-11-12T09:05:18.074Z,3.55
2022-11-12T09:08:23.589Z,3.50
2022-11-12T09:11:27.926Z,3.50
2022-11-12T09:14:32.165Z,3.65
2022-11-12T09:17:36.014Z,3.23
2022-11-12T09:20:39.663Z,2.83
2022-11-12T09:23:43.373Z,3.25
2022-11-12T09:26:48.618Z,3.22
2022-11-12T09:29:53.643Z,3.13
2022-11-12T09:32:58.652Z,3.10
2022-11-12T09:36:03.166Z,3.33
2022-11-12T09:39:07.189Z,3.30
2022-11-12T09:42:14.250Z,3.03
2022-11-12T09:45:23.739Z,2.75
2022-11-12T09:48:32.415Z,2.80
2022-11-12T09:51:39.311Z,2.75
2022-11-12T09:54:43.480Z,2.80
2022-11-12T09:57:47.524Z,3.35
2022-11-12T10:00:56.092Z,3.17
2022-11-12T10:04:06.394Z,3.20
2022-11-12T10:07:30.466Z,2.88
2022-11-12T10:10:46.995Z,3.17
2022-11-12T10:13:53.596Z,2.90
2022-11-12T10:17:08.633Z,2.53
2022-11-12T10:20:12.926Z,2.47
2022-11-12T10:23:32.754Z,2.75
2022-11-12T10:26:40.188Z,2.50
2022-11-12T10:29:50.358Z,2.55
2022-11-12T10:32:55.310Z,2.45
2022-11-12T10:36:22.870Z,2.60
2022-11-12T10:39:33.201Z,2.60
2022-11-12T10:42:55.061Z,2.40
2022-11-12T10:46:12.615Z,2.88
2022-11-12T10:49:16.877Z,2.97
2022-11-12T10:52:21.814Z,2.40
2022-11-12T10:55:28.343Z,2.78
2022-11-12T10:58:32.121Z,2.72
2022-11-12T11:01:36.273Z,3.17
2022-11-12T11:04:42.599Z,4.95
2022-11-12T11:07:49.445Z,4.93
2022-11-12T11:11:10.298Z,3.95
2022-11-12T11:14:23.510Z,3.45
2022-11-12T11:17:27.187Z,3.40
2022-11-12T11:20:36.002Z,3.60
2022-11-12T11:23:58.901Z,3.57
2022-11-12T11:27:21.577Z,3.65
2022-11-12T11:30:25.748Z,3.28
2022-11-12T11:33:39.726Z,2.70
2022-11-12T11:36:54.843Z,2.78
2022-11-12T11:40:08.720Z,2.60
2022-11-12T11:43:22.179Z,2.83
2022-11-12T11:46:35.207Z,2.80
2022-11-12T11:49:59.127Z,2.50
2022-11-12T11:53:18.533Z,6.57
2022-11-12T11:56:24.431Z,5.40
2022-11-12T11:59:33.072Z,5.47
2022-11-12T12:03:05.978Z,5.30
2022-11-12T12:06:16.229Z,5.22
2022-11-12T12:09:31.006Z,5.22
2022-11-12T12:12:53.741Z,4.63
2022-11-12T12:16:10.453Z,4.25
2022-11-12T12:19:30.008Z,4.07
2022-11-12T12:22:43.466Z,4.45
2022-11-12T12:25:49.244Z,3.97
2022-11-12T12:29:10.865Z,3.83
2022-11-12T12:32:29.482Z,3.72
2022-11-12T12:35:56.633Z,4.15
2022-11-12T12:39:16.035Z,4.38
2022-11-12T12:42:29.297Z,4.90
2022-11-12T12:45:39.920Z,4.63
2022-11-12T12:48:44.821Z,5.63
2022-11-12T12:51:54.494Z,5.70
2022-11-12T12:54:59.816Z,5.63
2022-11-12T12:58:03.942Z,5.85
2022-11-12T13:01:11.244Z,5.43
2022-11-12T13:04:15.033Z,5.63
2022-11-12T13:07:38.166Z,4.95
2022-11-12T13:10:42.206Z,4.78
2022-11-12T13:13:46.144Z,3.70
2022-11-12T13:16:51.231Z,3.50
2022-11-12T13:19:55.151Z,3.35
2022-11-12T13:22:59.168Z,3.30
2022-11-12T13:26:22.078Z,2.80
2022-11-12T13:29:28.866Z,2.58
2022-11-12T13:32:34.168Z,2.50
2022-11-12T13:35:39.695Z,2.55
2022-11-12T13:38:44.406Z,2.60
2022-11-12T13:42:13.782Z,2.20
2022-11-12T13:45:19.658Z,2.33
2022-11-12T13:48:23.846Z,2.23
2022-11-12T13:51:48.237Z,2.40
2022-11-12T13:55:06.768Z,2.22
2022-11-12T13:58:40.279Z,2.13
2022-11-12T14:01:44.629Z,2.28
2022-11-12T14:04:48.598Z,2.43
2022-11-12T14:08:06.057Z,2.03
2022-11-12T14:11:09.931Z,2.22
2022-11-12T14:14:22.678Z,2.33
2022-11-12T14:17:38.831Z,2.70
2022-11-12T14:20:42.504Z,5.17
2022-11-12T14:23:47.773Z,5.93
2022-11-12T14:26:51.407Z,5.72
2022-11-12T14:30:05.414Z,5.93
2022-11-12T14:33:10.747Z,5.80
2022-11-12T14:36:15.515Z,6.07
2022-11-12T14:39:19.079Z,6.07
2022-11-12T14:42:23.107Z,5.53
2022-11-12T14:45:31.196Z,4.70
2022-11-12T14:48:46.202Z,4.47
2022-11-12T14:51:53.825Z,3.90
2022-11-12T14:54:59.576Z,3.30
2022-11-12T14:58:04.393Z,3.58
2022-11-12T15:02:13.966Z,3.30
2022-11-12T15:04:54.848Z,3.47
2022-11-12T15:07:58.683Z,3.37
2022-11-12T15:11:21.730Z,3.03
2022-11-12T15:14:26.350Z,2.80
2022-11-12T15:17:32.209Z,2.83
2022-11-12T15:20:36.423Z,3.13
2022-11-12T15:23:50.697Z,3.40
2022-11-12T15:26:55.500Z,3.38
2022-11-12T15:30:16.107Z,3.45
2022-11-12T15:33:23.290Z,3.42
2022-11-12T15:36:27.106Z,3.45
2022-11-12T15:39:32.645Z,6.10
2022-11-12T15:42:37.804Z,4.80
2022-11-12T15:45:41.350Z,4.32
2022-11-12T15:48:45.319Z,3.35
2022-11-12T15:51:49.134Z,3.58
2022-11-12T15:54:53.160Z,3.20
2022-11-12T15:57:57.291Z,2.80
2022-11-12T16:01:01.454Z,2.60
2022-11-12T16:04:05.342Z,2.58
2022-11-12T16:07:09.393Z,2.67
2022-11-12T16:10:14.083Z,2.80
2022-11-12T16:13:22.515Z,3.40
2022-11-12T16:16:26.372Z,3.13
2022-11-12T16:19:34.106Z,3.70
2022-11-12T16:22:38.377Z,4.68
2022-11-12T16:25:43.065Z,4.47
2022-11-12T16:28:47.216Z,5.18
2022-11-12T16:31:50.951Z,5.05
2022-11-12T16:35:00.831Z,5.00
2022-11-12T16:38:12.144Z,5.18
2022-11-12T16:41:16.449Z,4.40
2022-11-12T16:44:20.786Z,5.53
2022-11-12T16:47:24.695Z,5.50
2022-11-12T16:50:28.544Z,5.50
2022-11-12T16:53:32.516Z,5.70
2022-11-12T16:56:36.625Z,6.10
2022-11-12T16:59:40.704Z,5.85
2022-11-12T17:02:49.352Z,5.70
2022-11-12T17:05:56.304Z,5.85
2022-11-12T17:09:00.166Z,5.55
2022-11-12T17:12:04.530Z,5.47
2022-11-12T17:15:08.903Z,5.28
2022-11-12T17:18:12.638Z,5.55
2022-11-12T17:21:18.258Z,5.78
2022-11-12T17:24:22.444Z,5.38
2022-11-12T17:27:27.393Z,5.80
2022-11-12T17:30:31.636Z,5.47
2022-11-12T17:33:37.715Z,5.10
2022-11-12T17:36:43.703Z,5.57
2022-11-12T17:39:48.394Z,6.03
2022-11-12T17:42:52.178Z,6.33
2022-11-12T17:45:56.675Z,5.43
2022-11-12T17:49:00.727Z,5.28
2022-11-12T17:52:04.375Z,5.45
2022-11-12T17:55:08.576Z,5.65
2022-11-12T17:58:12.742Z,5.00
2022-11-12T18:01:26.552Z,5.40
2022-11-12T18:04:31.125Z,5.57
2022-11-12T18:07:35.490Z,5.68
2022-11-12T18:10:39.451Z,4.63
2022-11-12T18:13:43.286Z,5.20
2022-11-12T18:16:47.292Z,4.78
2022-11-12T18:19:51.346Z,5.20
2022-11-12T18:22:55.519Z,5.13
2022-11-12T18:26:00.368Z,5.07
2022-11-12T18:29:04.128Z,4.87
2022-11-12T18:32:08.192Z,5.22
2022-11-12T18:35:12.144Z,5.43
2022-11-12T18:38:16.016Z,5.18
2022-11-12T18:41:25.671Z,5.40
2022-11-12T18:44:29.603Z,5.63
2022-11-12T18:47:33.322Z,4.80
2022-11-12T18:50:37.469Z,5.05
2022-11-12T18:53:42.852Z,4.80
2022-11-12T18:56:47.889Z,5.10
2022-11-12T18:59:54.869Z,5.17
2022-11-12T19:02:59.191Z,5.03
2022-11-12T19:06:04.632Z,5.05
2022-11-12T19:09:11.740Z,5.22
2022-11-12T19:12:15.737Z,5.03
2022-11-12T19:15:25.529Z,4.43
2022-11-12T19:18:30.824Z,5.20
2022-11-12T19:21:34.748Z,5.20
2022-11-12T19:24:38.750Z,5.18
2022-11-12T19:27:42.822Z,5.05
2022-11-12T19:30:46.605Z,5.30
2022-11-12T19:33:50.776Z,5.38
2022-11-12T19:37:11.959Z,5.20
2022-11-12T19:40:19.203Z,5.57
2022-11-12T19:43:24.513Z,5.35
2022-11-12T19:46:28.384Z,5.53
2022-11-12T19:49:32.231Z,5.53
2022-11-12T19:52:36.233Z,5.53
2022-11-12T19:55:40.172Z,6.72
2022-11-12T19:58:45.479Z,7.55
2022-11-12T20:01:49.260Z,8.47
2022-11-12T20:04:53.187Z,8.77
2022-11-12T20:07:56.795Z,9.10
2022-11-12T20:11:00.856Z,10.05
2022-11-12T20:14:05.134Z,10.43
2022-11-12T20:17:09.463Z,11.67
2022-11-12T20:20:13.581Z,12.75
2022-11-12T20:23:17.712Z,13.23
2022-11-12T20:26:22.049Z,13.10
2022-11-12T20:29:26.305Z,12.48
2022-11-12T20:32:29.973Z,12.27
2022-11-12T20:35:37.059Z,12.48
2022-11-12T20:38:42.285Z,11.52
2022-11-12T20:41:46.540Z,12.38
2022-11-12T20:44:50.846Z,11.93
2022-11-12T20:47:55.847Z,11.33
2022-11-12T20:51:22.663Z,11.70
2022-11-12T20:54:27.821Z,11.77
2022-11-12T20:57:31.868Z,12.63
2022-11-12T21:00:35.732Z,11.90
2022-11-12T21:03:40.341Z,11.93
2022-11-12T21:06:44.368Z,12.30
2022-11-12T21:09:48.559Z,12.18
2022-11-12T21:12:52.318Z,11.55
2022-11-12T21:15:56.196Z,12.60
2022-11-12T21:19:01.479Z,12.00
2022-11-12T21:22:05.899Z,12.23
2022-11-12T21:25:10.131Z,12.23
2022-11-12T21:28:14.063Z,11.25
2022-11-12T21:31:22.577Z,12.30
2022-11-12T21:34:26.855Z,12.20
2022-11-12T21:37:30.983Z,11.00
2022-11-12T21:40:35.108Z,11.70
2022-11-12T21:43:40.534Z,11.90
2022-11-12T21:46:44.378Z,11.13
2022-11-12T21:49:48.341Z,11.40
2022-11-12T21:52:52.311Z,11.18
2022-11-12T21:56:01.005Z,12.07
2022-11-12T21:59:05.161Z,11.05
2022-11-12T22:02:12.472Z,11.00
2022-11-12T22:05:16.679Z,10.90
2022-11-12T22:08:20.426Z,11.52
2022-11-12T22:11:25.422Z,11.45
2022-11-12T22:14:29.547Z,11.05
2022-11-12T22:17:33.801Z,10.90
2022-11-12T22:20:37.546Z,10.10
2022-11-12T22:23:41.375Z,10.45
2022-11-12T22:26:45.283Z,10.25
2022-11-12T22:29:49.080Z,10.18
2022-11-12T22:32:52.899Z,9.95
2022-11-12T22:35:56.822Z,10.53
2022-11-12T22:39:00.874Z,10.68
2022-11-12T22:42:04.882Z,9.60
2022-11-12T22:45:09.664Z,10.10
2022-11-12T22:48:13.733Z,9.77
2022-11-12T22:51:18.755Z,9.90
2022-11-12T22:54:22.956Z,10.05
2022-11-12T22:57:27.016Z,9.27
2022-11-12T23:00:32.112Z,10.20
2022-11-12T23:03:36.327Z,9.85
2022-11-12T23:06:40.368Z,10.10
2022-11-12T23:09:44.179Z,9.57
2022-11-12T23:12:48.359Z,9.85
2022-11-12T23:15:52.336Z,10.13
2022-11-12T23:18:56.388Z,9.35
2022-11-12T23:22:04.002Z,9.07
2022-11-12T23:25:11.842Z,9.85
2022-11-12T23:28:15.418Z,9.73
2022-11-12T23:31:20.653Z,9.32
2022-11-12T23:34:25.190Z,9.70
2022-11-12T23:37:29.144Z,9.67
2022-11-12T23:40:33.016Z,9.20
2022-11-12T23:43:36.909Z,8.75
2022-11-12T23:46:41.066Z,8.98
2022-11-12T23:49:45.056Z,9.02
2022-11-12T23:52:49.085Z,9.40
2022-11-12T23:55:53.323Z,8.60
2022-11-12T23:58:57.334Z,8.90
